createdAt,value
2023-03-27T00:01:18.348Z,44.78
2023-03-27T00:03:49.825Z,45.02
2023-03-27T00:06:20.926Z,44.73
2023-03-27T00:08:51.282Z,45.22
2023-03-27T00:11:20.598Z,45.13
2023-03-27T00:13:51.283Z,45.25
2023-03-27T00:16:20.349Z,44.78
2023-03-27T00:18:48.996Z,44.91
2023-03-27T00:21:17.356Z,44.99
2023-03-27T00:23:47.094Z,44.44
2023-03-27T00:26:15.523Z,45.12
2023-03-27T00:28:43.941Z,45.20
2023-03-27T00:31:13.698Z,45.24
2023-03-27T00:33:42.574Z,46.22
2023-03-27T00:36:12.224Z,46.78
2023-03-27T00:38:40.800Z,46.53
2023-03-27T00:41:10.636Z,48.07
2023-03-27T00:43:44.298Z,48.07
2023-03-27T00:46:31.818Z,48.21
2023-03-27T00:49:02.984Z,47.75
2023-03-27T00:51:32.503Z,47.63
2023-03-27T00:54:01.532Z,47.55
2023-03-27T00:56:33.907Z,47.82
2023-03-27T00:59:04.938Z,47.58
2023-03-27T01:01:33.613Z,47.96
2023-03-27T01:04:05.766Z,48.20
2023-03-27T01:06:34.749Z,48.46
2023-03-27T01:09:04.761Z,48.11
2023-03-27T01:11:44.866Z,48.03
2023-03-27T01:14:22.482Z,49.17
2023-03-27T01:17:08.518Z,49.63
2023-03-27T01:19:59.511Z,52.07
2023-03-27T01:22:58.385Z,50.26
2023-03-27T01:25:52.030Z,51.81
2023-03-27T01:28:37.084Z,49.55
2023-03-27T01:31:24.516Z,49.86
2023-03-27T01:34:09.989Z,49.94
2023-03-27T01:37:00.968Z,49.99
2023-03-27T01:39:36.534Z,49.34
2023-03-27T01:42:10.055Z,49.83
2023-03-27T01:44:47.221Z,49.55
2023-03-27T01:47:24.487Z,50.68
2023-03-27T01:49:58.275Z,51.27
2023-03-27T01:52:32.734Z,50.96
2023-03-27T01:55:09.903Z,51.65
2023-03-27T01:57:50.454Z,50.95
2023-03-27T02:00:22.628Z,50.75
2023-03-27T02:02:57.204Z,51.04
2023-03-27T02:05:31.954Z,52.06
2023-03-27T02:08:07.694Z,52.13
2023-03-27T02:10:42.343Z,52.24
2023-03-27T02:13:18.380Z,52.92
2023-03-27T02:15:49.472Z,53.15
2023-03-27T02:18:23.774Z,52.55
2023-03-27T02:20:52.056Z,52.78
2023-03-27T02:23:23.152Z,53.69
2023-03-27T02:25:54.495Z,53.40
2023-03-27T02:28:48.765Z,53.22
2023-03-27T02:31:34.886Z,53.51
2023-03-27T02:34:29.170Z,52.85
2023-03-27T02:37:02.540Z,53.34
2023-03-27T02:39:39.204Z,54.28
2023-03-27T02:42:14.092Z,53.88
2023-03-27T02:44:51.794Z,53.94
2023-03-27T02:47:27.874Z,53.48
2023-03-27T02:50:01.966Z,53.19
2023-03-27T02:52:35.102Z,52.98
2023-03-27T02:55:07.509Z,54.15
2023-03-27T02:57:39.999Z,54.60
2023-03-27T03:00:25.546Z,55.21
2023-03-27T03:03:00.354Z,54.74
2023-03-27T03:05:28.825Z,55.16
2023-03-27T03:07:58.397Z,55.13
2023-03-27T03:10:28.090Z,55.43
2023-03-27T03:12:57.893Z,55.42
2023-03-27T03:15:26.228Z,55.91
2023-03-27T03:17:54.983Z,55.12
2023-03-27T03:20:24.231Z,55.56
2023-03-27T03:22:52.730Z,56.21
2023-03-27T03:25:21.091Z,55.65
2023-03-27T03:27:49.462Z,55.13
2023-03-27T03:30:19.515Z,55.57
2023-03-27T03:32:48.250Z,56.67
2023-03-27T03:35:16.666Z,56.12
2023-03-27T03:37:50.691Z,56.69
2023-03-27T03:40:21.233Z,58.82
2023-03-27T03:42:51.134Z,57.09
2023-03-27T03:45:21.569Z,59.19
2023-03-27T03:47:49.976Z,58.02
2023-03-27T03:50:18.567Z,59.41
2023-03-27T03:52:47.361Z,59.38
2023-03-27T03:55:16.316Z,60.76
2023-03-27T03:57:48.564Z,59.99
2023-03-27T04:00:18.901Z,59.88
2023-03-27T04:02:52.202Z,60.43
2023-03-27T04:05:20.846Z,59.39
2023-03-27T04:07:49.985Z,60.70
2023-03-27T04:10:18.984Z,60.18
2023-03-27T04:12:51.438Z,60.07
2023-03-27T04:15:19.973Z,58.54
2023-03-27T04:17:49.966Z,60.27
2023-03-27T04:20:19.501Z,61.06
2023-03-27T04:22:51.412Z,61.59
2023-03-27T04:25:23.486Z,60.49
2023-03-27T04:27:52.630Z,60.17
2023-03-27T04:30:23.678Z,59.95
2023-03-27T04:32:54.230Z,58.66
2023-03-27T04:35:23.601Z,58.44
2023-03-27T04:37:53.021Z,59.45
2023-03-27T04:40:21.384Z,60.33
2023-03-27T04:42:50.515Z,61.25
2023-03-27T04:45:22.589Z,59.25
2023-03-27T04:47:52.423Z,57.45
2023-03-27T04:50:20.860Z,57.19
2023-03-27T04:52:50.544Z,57.81
2023-03-27T04:55:19.860Z,58.16
2023-03-27T04:57:48.507Z,58.46
2023-03-27T05:00:19.154Z,60.75
2023-03-27T05:02:48.692Z,60.53
2023-03-27T05:05:19.596Z,60.26
2023-03-27T05:07:48.763Z,59.54
2023-03-27T05:10:21.913Z,59.43
2023-03-27T05:12:52.786Z,60.13
2023-03-27T05:15:22.395Z,60.47
2023-03-27T05:17:54.530Z,59.57
2023-03-27T05:20:24.411Z,60.32
2023-03-27T05:22:54.943Z,59.39
2023-03-27T05:25:24.683Z,60.27
2023-03-27T05:28:11.501Z,60.07
2023-03-27T05:30:39.883Z,61.15
2023-03-27T05:33:08.250Z,62.25
2023-03-27T05:35:38.027Z,63.42
2023-03-27T05:38:06.671Z,62.70
2023-03-27T05:40:35.862Z,61.85
2023-03-27T05:43:04.102Z,60.17
2023-03-27T05:45:32.680Z,59.70
2023-03-27T05:48:02.918Z,59.39
2023-03-27T05:50:33.702Z,57.89
2023-03-27T05:53:05.627Z,58.17
2023-03-27T05:55:34.040Z,57.68
2023-03-27T05:58:02.366Z,58.17
2023-03-27T06:00:34.258Z,57.19
2023-03-27T06:03:04.309Z,55.08
2023-03-27T06:05:32.766Z,54.41
2023-03-27T06:08:02.235Z,53.22
2023-03-27T06:10:33.966Z,52.71
2023-03-27T06:13:03.996Z,52.21
2023-03-27T06:15:33.117Z,52.48
2023-03-27T06:18:01.454Z,52.68
2023-03-27T06:20:29.963Z,51.12
2023-03-27T06:23:00.108Z,50.29
2023-03-27T06:25:32.238Z,49.47
2023-03-27T06:28:04.680Z,49.69
2023-03-27T06:30:33.045Z,55.52
2023-03-27T06:33:03.154Z,55.26
2023-03-27T06:35:33.753Z,54.42
2023-03-27T06:38:03.630Z,49.05
2023-03-27T06:40:35.551Z,48.68
2023-03-27T06:43:07.028Z,49.83
2023-03-27T06:45:38.202Z,48.95
2023-03-27T06:48:17.282Z,44.46
2023-03-27T06:50:49.455Z,45.27
2023-03-27T06:55:49.612Z,45.07
2023-03-27T06:58:19.825Z,44.28
2023-03-27T07:00:49.904Z,47.93
2023-03-27T07:03:19.281Z,45.23
2023-03-27T07:05:49.176Z,47.80
2023-03-27T07:08:24.094Z,45.27
2023-03-27T07:11:08.055Z,44.42
2023-03-27T07:13:42.621Z,43.91
2023-03-27T07:16:12.543Z,43.14
2023-03-27T07:18:42.102Z,42.81
2023-03-27T07:21:13.025Z,45.44
2023-03-27T07:23:41.518Z,43.58
2023-03-27T07:26:09.898Z,44.95
2023-03-27T07:28:38.831Z,45.62
2023-03-27T07:31:29.897Z,43.74
2023-03-27T07:34:02.147Z,47.01
2023-03-27T07:36:30.806Z,48.71
2023-03-27T07:38:59.117Z,48.48
2023-03-27T07:41:30.163Z,48.93
2023-03-27T07:43:58.712Z,50.05
2023-03-27T07:46:28.580Z,48.23
2023-03-27T07:48:57.656Z,48.19
2023-03-27T07:51:25.948Z,48.86
2023-03-27T07:53:58.595Z,49.68
2023-03-27T07:56:28.264Z,48.04
2023-03-27T07:58:56.549Z,48.27
2023-03-27T08:01:26.058Z,45.40
2023-03-27T08:03:55.944Z,46.38
2023-03-27T08:06:24.552Z,47.85
2023-03-27T08:08:52.908Z,48.30
2023-03-27T08:11:30.268Z,46.80
2023-03-27T08:13:59.718Z,47.97
2023-03-27T08:16:29.988Z,47.63
2023-03-27T08:19:01.490Z,47.30
2023-03-27T08:21:33.412Z,45.72
2023-03-27T08:24:03.592Z,46.12
2023-03-27T08:26:32.392Z,45.98
2023-03-27T08:29:00.918Z,45.86
2023-03-27T08:31:31.290Z,47.41
2023-03-27T08:34:01.140Z,45.36
2023-03-27T08:36:29.546Z,44.30
2023-03-27T08:38:58.406Z,46.67
2023-03-27T08:41:31.143Z,46.43
2023-03-27T08:44:04.246Z,46.72
2023-03-27T08:46:38.992Z,45.73
2023-03-27T08:49:15.196Z,45.67
2023-03-27T08:51:48.321Z,44.66
2023-03-27T08:54:19.790Z,43.67
2023-03-27T08:56:49.125Z,44.25
2023-03-27T08:59:20.933Z,45.44
2023-03-27T09:01:55.915Z,44.60
2023-03-27T09:04:37.523Z,44.90
2023-03-27T09:07:12.812Z,45.13
2023-03-27T09:09:48.850Z,45.72
2023-03-27T09:12:29.135Z,46.28
2023-03-27T09:15:02.189Z,46.23
2023-03-27T09:17:35.918Z,46.35
2023-03-27T09:20:17.993Z,48.02
2023-03-27T09:22:52.920Z,46.85
2023-03-27T09:25:25.527Z,46.37
2023-03-27T09:27:54.311Z,47.77
2023-03-27T09:30:27.698Z,49.29
2023-03-27T09:32:59.660Z,49.25
2023-03-27T09:35:29.633Z,50.39
2023-03-27T09:38:03.864Z,49.36
2023-03-27T09:40:47.682Z,49.05
2023-03-27T09:43:20.489Z,49.56
2023-03-27T09:45:53.029Z,48.13
2023-03-27T09:48:32.544Z,47.60
2023-03-27T09:51:02.582Z,48.38
2023-03-27T09:53:31.034Z,48.32
2023-03-27T09:56:03.327Z,48.43
2023-03-27T09:58:36.414Z,48.18
2023-03-27T10:01:17.671Z,47.68
2023-03-27T10:03:51.980Z,48.25
2023-03-27T10:06:30.337Z,48.53
2023-03-27T10:09:01.516Z,47.66
2023-03-27T10:11:34.096Z,46.99
2023-03-27T10:14:11.175Z,47.82
2023-03-27T10:16:42.460Z,48.48
2023-03-27T10:19:23.765Z,46.90
2023-03-27T10:21:55.073Z,45.93
2023-03-27T10:24:31.947Z,47.26
2023-03-27T10:27:01.510Z,46.13
2023-03-27T10:29:34.920Z,46.42
2023-03-27T10:32:05.381Z,46.91
2023-03-27T10:34:36.753Z,47.00
2023-03-27T10:37:21.051Z,47.46
2023-03-27T10:39:49.599Z,47.07
2023-03-27T10:42:18.828Z,46.64
2023-03-27T10:44:49.984Z,47.35
2023-03-27T10:47:21.102Z,47.73
2023-03-27T10:49:57.273Z,47.61
2023-03-27T10:52:34.969Z,47.96
2023-03-27T10:55:16.151Z,48.99
2023-03-27T10:57:49.961Z,49.92
2023-03-27T11:00:24.527Z,52.84
2023-03-27T11:03:00.291Z,54.18
2023-03-27T11:05:36.146Z,55.16
2023-03-27T11:08:12.443Z,56.66
2023-03-27T11:10:43.034Z,57.12
2023-03-27T11:13:16.496Z,58.10
2023-03-27T11:15:49.724Z,59.04
2023-03-27T11:18:23.503Z,59.04
2023-03-27T11:20:56.680Z,58.21
2023-03-27T11:23:32.265Z,54.94
2023-03-27T11:26:04.220Z,56.02
2023-03-27T11:28:43.063Z,54.17
2023-03-27T11:31:21.407Z,56.03
2023-03-27T11:33:53.680Z,53.86
2023-03-27T11:36:34.300Z,52.30
2023-03-27T11:39:17.008Z,51.34
2023-03-27T11:41:52.216Z,51.34
2023-03-27T11:44:21.038Z,51.62
2023-03-27T11:47:15.285Z,52.34
2023-03-27T11:49:59.941Z,50.76
2023-03-27T11:52:41.213Z,49.27
2023-03-27T11:55:24.830Z,51.48
2023-03-27T11:58:08.862Z,50.48
2023-03-27T12:00:42.824Z,50.99
2023-03-27T12:03:28.580Z,51.94
2023-03-27T12:06:08.154Z,52.33
2023-03-27T12:08:51.930Z,52.78
2023-03-27T12:11:26.120Z,53.34
2023-03-27T12:14:18.530Z,54.01
2023-03-27T12:17:01.497Z,53.07
2023-03-27T12:19:53.079Z,53.83
2023-03-27T12:22:31.599Z,54.34
2023-03-27T12:25:17.552Z,55.17
2023-03-27T12:27:58.076Z,55.31
2023-03-27T12:30:38.370Z,54.94
2023-03-27T12:33:30.492Z,56.57
2023-03-27T12:36:02.778Z,57.14
2023-03-27T12:38:35.043Z,58.14
2023-03-27T12:41:13.762Z,60.93
2023-03-27T12:43:49.297Z,62.09
2023-03-27T12:46:33.014Z,63.08
2023-03-27T12:49:05.505Z,67.19
2023-03-27T12:51:39.904Z,66.75
2023-03-27T12:54:25.128Z,68.96
2023-03-27T12:57:05.207Z,67.78
2023-03-27T12:59:39.308Z,67.90
2023-03-27T13:02:44.474Z,66.12
2023-03-27T13:05:50.886Z,65.68
2023-03-27T13:08:51.162Z,71.07
2023-03-27T13:11:32.486Z,83.51
2023-03-27T13:14:24.867Z,91.32
2023-03-27T13:17:04.221Z,100.00
2023-03-27T13:19:45.489Z,100.00
2023-03-27T13:22:26.315Z,100.00
2023-03-27T13:25:13.545Z,100.00
2023-03-27T13:28:15.321Z,100.00
2023-03-27T13:30:47.853Z,100.00
2023-03-27T13:33:25.339Z,100.00
2023-03-27T13:36:05.568Z,100.00
2023-03-27T13:39:14.031Z,100.00
2023-03-27T13:42:02.386Z,100.00
2023-03-27T13:44:42.853Z,100.00
2023-03-27T13:47:38.388Z,100.00
2023-03-27T13:50:27.345Z,100.00
2023-03-27T13:53:23.910Z,100.00
2023-03-27T13:56:07.386Z,100.00
2023-03-27T13:58:51.725Z,100.00
2023-03-27T14:01:35.203Z,100.00
2023-03-27T14:04:25.756Z,100.00
2023-03-27T14:07:25.794Z,100.00
2023-03-27T14:10:11.546Z,100.00
2023-03-27T14:12:54.914Z,100.00
2023-03-27T14:15:47.176Z,100.00
2023-03-27T14:18:41.792Z,100.00
2023-03-27T14:21:13.342Z,100.00
2023-03-27T14:23:49.377Z,100.00
2023-03-27T14:26:24.721Z,100.00
2023-03-27T14:28:55.175Z,100.00
2023-03-27T14:31:26.913Z,100.00
2023-03-27T14:34:01.519Z,100.00
2023-03-27T14:36:34.049Z,100.00
2023-03-27T14:39:08.524Z,100.00
2023-03-27T14:41:45.814Z,100.00
2023-03-27T14:44:14.357Z,100.00
2023-03-27T14:46:48.225Z,100.00
2023-03-27T14:49:21.070Z,100.00
2023-03-27T14:51:54.186Z,100.00
2023-03-27T14:54:29.039Z,100.00
2023-03-27T14:57:00.585Z,100.00
2023-03-27T14:59:35.085Z,100.00
2023-03-27T15:02:07.469Z,96.19
2023-03-27T15:04:38.309Z,94.87
2023-03-27T15:07:14.461Z,100.00
2023-03-27T15:09:44.115Z,100.00
2023-03-27T15:12:12.780Z,100.00
2023-03-27T15:14:41.731Z,100.00
2023-03-27T15:17:16.080Z,93.92
2023-03-27T15:19:49.141Z,96.57
2023-03-27T15:22:23.939Z,100.00
2023-03-27T15:24:57.357Z,100.00
2023-03-27T15:27:31.001Z,99.29
2023-03-27T15:30:01.929Z,98.41
2023-03-27T15:32:42.612Z,91.26
2023-03-27T15:35:18.137Z,84.58
2023-03-27T15:37:47.106Z,84.97
2023-03-27T15:40:43.078Z,82.32
2023-03-27T15:43:25.856Z,86.23
2023-03-27T15:46:15.090Z,88.41
2023-03-27T15:48:46.259Z,84.29
2023-03-27T15:51:28.760Z,90.15
2023-03-27T15:53:57.374Z,97.25
2023-03-27T15:56:30.430Z,100.00
2023-03-27T15:59:01.018Z,100.00
2023-03-27T16:01:32.363Z,100.00
2023-03-27T16:04:05.508Z,100.00
2023-03-27T16:06:37.689Z,100.00
2023-03-27T16:09:18.114Z,100.00
2023-03-27T16:11:49.511Z,97.54
2023-03-27T16:14:28.140Z,100.00
2023-03-27T16:17:12.095Z,96.50
2023-03-27T16:19:45.069Z,98.80
2023-03-27T16:22:13.430Z,100.00
2023-03-27T16:24:41.922Z,99.42
2023-03-27T16:27:13.081Z,100.00
2023-03-27T16:29:41.367Z,100.00
2023-03-27T16:32:13.833Z,100.00
2023-03-27T16:34:42.147Z,100.00
2023-03-27T16:37:10.453Z,100.00
2023-03-27T16:39:38.801Z,100.00
2023-03-27T16:42:07.213Z,100.00
2023-03-27T16:44:36.956Z,100.00
2023-03-27T16:47:05.355Z,100.00
2023-03-27T16:49:33.674Z,100.00
2023-03-27T16:52:02.158Z,100.00
2023-03-27T16:54:30.551Z,100.00
2023-03-27T16:56:58.892Z,100.00
2023-03-27T16:59:28.398Z,100.00
2023-03-27T17:01:58.078Z,100.00
2023-03-27T17:04:27.248Z,100.00
2023-03-27T17:06:56.120Z,100.00
2023-03-27T17:09:24.705Z,100.00
2023-03-27T17:11:52.903Z,100.00
2023-03-27T17:14:21.208Z,100.00
2023-03-27T17:16:49.860Z,100.00
2023-03-27T17:19:20.095Z,100.00
2023-03-27T17:21:48.442Z,100.00
2023-03-27T17:24:17.554Z,100.00
2023-03-27T17:26:45.922Z,100.00
2023-03-27T17:29:14.290Z,100.00
2023-03-27T17:31:42.567Z,100.00
2023-03-27T17:34:10.949Z,100.00
2023-03-27T17:36:47.213Z,100.00
2023-03-27T17:39:18.568Z,100.00
2023-03-27T17:41:47.068Z,100.00
2023-03-27T17:44:16.213Z,100.00
2023-03-27T17:46:44.593Z,100.00
2023-03-27T17:49:13.277Z,100.00
2023-03-27T17:51:43.397Z,100.00
2023-03-27T17:54:12.222Z,100.00
2023-03-27T17:56:41.171Z,100.00
2023-03-27T17:59:10.347Z,100.00
2023-03-27T18:01:38.965Z,100.00
2023-03-27T18:04:07.503Z,100.00
2023-03-27T18:06:36.732Z,100.00
2023-03-27T18:09:07.557Z,100.00
2023-03-27T18:11:35.896Z,100.00
2023-03-27T18:14:04.197Z,100.00
2023-03-27T18:16:32.572Z,100.00
2023-03-27T18:19:01.143Z,100.00
2023-03-27T18:21:29.508Z,100.00
2023-03-27T18:23:59.748Z,100.00
2023-03-27T18:26:29.516Z,100.00
2023-03-27T18:28:58.144Z,100.00
2023-03-27T18:31:26.743Z,100.00
2023-03-27T18:33:55.179Z,100.00
2023-03-27T18:36:23.506Z,100.00
2023-03-27T18:38:52.198Z,100.00
2023-03-27T18:41:20.586Z,100.00
2023-03-27T18:43:50.342Z,100.00
2023-03-27T18:46:18.751Z,100.00
2023-03-27T18:48:49.262Z,100.00
2023-03-27T18:51:18.846Z,100.00
2023-03-27T18:53:47.396Z,100.00
2023-03-27T18:56:16.823Z,100.00
2023-03-27T18:58:45.102Z,100.00
2023-03-27T19:01:14.766Z,100.00
2023-03-27T19:03:43.666Z,100.00
2023-03-27T19:06:13.395Z,100.00
2023-03-27T19:08:43.270Z,100.00
2023-03-27T19:11:11.899Z,100.00
2023-03-27T19:13:40.218Z,100.00
2023-03-27T19:16:14.332Z,100.00
2023-03-27T19:18:45.114Z,100.00
2023-03-27T19:21:13.480Z,100.00
2023-03-27T19:23:41.909Z,100.00
2023-03-27T19:26:11.722Z,100.00
2023-03-27T19:28:40.514Z,100.00
2023-03-27T19:31:09.697Z,100.00
2023-03-27T19:33:38.389Z,100.00
2023-03-27T19:36:09.341Z,100.00
2023-03-27T19:38:38.722Z,100.00
2023-03-27T19:41:09.800Z,100.00
2023-03-27T19:43:38.515Z,100.00
2023-03-27T19:46:15.796Z,100.00
2023-03-27T19:48:45.491Z,100.00
2023-03-27T19:51:15.155Z,100.00
2023-03-27T19:53:43.546Z,100.00
2023-03-27T19:56:12.042Z,100.00
2023-03-27T19:58:40.466Z,100.00
2023-03-27T20:01:09.266Z,100.00
2023-03-27T20:03:38.723Z,100.00
2023-03-27T20:06:12.946Z,100.00
2023-03-27T20:08:44.191Z,100.00
2023-03-27T20:11:12.643Z,100.00
2023-03-27T20:13:53.062Z,100.00
2023-03-27T20:16:23.551Z,100.00
2023-03-27T20:18:55.466Z,100.00
2023-03-27T20:21:25.800Z,100.00
2023-03-27T20:23:55.846Z,100.00
2023-03-27T20:26:25.172Z,100.00
2023-03-27T20:28:53.889Z,100.00
2023-03-27T20:31:22.898Z,100.00
2023-03-27T20:33:53.327Z,100.00
2023-03-27T20:36:23.334Z,100.00
2023-03-27T20:38:52.970Z,100.00
2023-03-27T20:41:22.721Z,100.00
2023-03-27T20:43:51.146Z,100.00
2023-03-27T20:46:19.495Z,100.00
2023-03-27T20:48:53.649Z,100.00
2023-03-27T20:51:24.676Z,100.00
2023-03-27T20:53:55.976Z,100.00
2023-03-27T20:56:26.466Z,100.00
2023-03-27T20:58:54.801Z,100.00
2023-03-27T21:01:27.940Z,100.00
2023-03-27T21:03:58.352Z,100.00
2023-03-27T21:06:26.967Z,100.00
2023-03-27T21:08:55.493Z,100.00
2023-03-27T21:11:25.172Z,100.00
2023-03-27T21:13:53.547Z,100.00
2023-03-27T21:16:21.882Z,100.00
2023-03-27T21:18:50.318Z,100.00
2023-03-27T21:21:18.653Z,100.00
2023-03-27T21:23:48.287Z,100.00
2023-03-27T21:26:16.737Z,100.00
2023-03-27T21:28:46.400Z,100.00
2023-03-27T21:31:14.661Z,100.00
2023-03-27T21:33:42.904Z,100.00
2023-03-27T21:36:13.099Z,100.00
2023-03-27T21:38:41.552Z,100.00
2023-03-27T21:41:11.716Z,100.00
2023-03-27T21:43:40.121Z,100.00
2023-03-27T21:46:09.918Z,100.00
2023-03-27T21:48:40.610Z,100.00
2023-03-27T21:51:09.580Z,100.00
2023-03-27T21:53:38.316Z,100.00
2023-03-27T21:56:07.388Z,100.00
2023-03-27T21:58:35.741Z,100.00
2023-03-27T22:01:04.319Z,100.00
2023-03-27T22:03:34.030Z,100.00
2023-03-27T22:06:11.500Z,100.00
2023-03-27T22:08:42.952Z,100.00
2023-03-27T22:11:12.546Z,100.00
2023-03-27T22:13:43.484Z,100.00
2023-03-27T22:16:13.941Z,100.00
2023-03-27T22:18:44.204Z,100.00
2023-03-27T22:21:14.732Z,100.00
2023-03-27T22:23:43.061Z,100.00
2023-03-27T22:26:12.014Z,100.00
2023-03-27T22:28:40.377Z,100.00
2023-03-27T22:31:08.958Z,100.00
2023-03-27T22:33:37.861Z,100.00
2023-03-27T22:36:11.854Z,100.00
2023-03-27T22:38:41.364Z,100.00
2023-03-27T22:41:11.207Z,100.00
2023-03-27T22:43:39.951Z,100.00
2023-03-27T22:46:10.127Z,100.00
2023-03-27T22:48:38.698Z,100.00
2023-03-27T22:51:09.922Z,100.00
2023-03-27T22:53:38.564Z,100.00
2023-03-27T22:56:08.739Z,100.00
2023-03-27T22:58:37.082Z,100.00
2023-03-27T23:01:06.637Z,100.00
2023-03-27T23:03:34.950Z,100.00
2023-03-27T23:06:03.325Z,100.00
2023-03-27T23:08:33.055Z,100.00
2023-03-27T23:11:03.474Z,100.00
2023-03-27T23:13:34.360Z,100.00
2023-03-27T23:16:02.891Z,100.00
2023-03-27T23:18:31.476Z,100.00
2023-03-27T23:21:01.877Z,100.00
2023-03-27T23:23:33.064Z,100.00
2023-03-27T23:26:01.756Z,100.00
2023-03-27T23:28:32.937Z,100.00
2023-03-27T23:31:03.447Z,100.00
2023-03-27T23:33:36.817Z,100.00
2023-03-27T23:36:07.844Z,100.00
2023-03-27T23:38:37.868Z,100.00
2023-03-27T23:41:07.744Z,100.00
2023-03-27T23:43:36.476Z,100.00
2023-03-27T23:46:08.763Z,100.00
2023-03-27T23:48:37.570Z,100.00
2023-03-27T23:51:06.733Z,100.00
2023-03-27T23:53:36.404Z,100.00
2023-03-27T23:56:07.286Z,100.00
2023-03-27T23:58:37.380Z,100.00
